Oceania — SQOC — position and weather

sailwx.info

Track history (hours):
 
Tides and Currents Weather Stations Pressure Air Temp Water Temp Dewpoint Dewpoint Depression Visibility Wind Speed Wind Dir Waves Ship Positions

Oceanographic research ship Oceania (Poland)

Detailed information on ship capabilities available from University of Delaware's Ocean Information Center and ARCUS's ALIAS (Arctic Logistics Information and Support) project.

Last reported at 2017-Jun-22 04:24 UTC. Time now 2017-Jun-24 05:16 UTC.
Position N 70°41' E 019°55'.

Length 49 m; beam 9 m.

Type: Sailing vessel. MMSI: 261000142.

Date/timePositionNaut miles runAvg speedWind from/ knotsBaromVisibWave heightAir tempDewpointWater temp
2017-Jun-22 04:24N 70°41' E 019°55'1 3.6
2017-Jun-22 03:59N 70°40' E 019°56'1 2.2
2017-Jun-22 03:30N 70°39' E 019°57'4 7.4
2017-Jun-22 03:00N 70°35' E 019°57'4 7.4
2017-Jun-22 02:30N 70°32' E 019°58'2 3.3
2017-Jun-22 02:00N 70°30' E 019°59'0 0.8
2017-Jun-22 01:30N 70°30' E 020°00'3 6.7
2017-Jun-22 01:00N 70°26' E 020°01'3 6.9
2017-Jun-22 00:30N 70°23' E 020°02'4 7.7
2017-Jun-22 00:00N 70°19' E 020°04'4 8.5
2017-Jun-21 23:30N 70°15' E 020°06'5 9.0
2017-Jun-21 23:00N 70°10' E 020°08'5 8.9
2017-Jun-21 22:29N 70°06' E 020°11'4 8.4
2017-Jun-21 22:00N 70°02' E 020°05'4 8.9
2017-Jun-21 21:30N 69°59' E 019°58'5 9.0
2017-Jun-21 21:00N 69°55' E 019°52'4 8.9
2017-Jun-21 20:30N 69°51' E 019°45'4 8.9
2017-Jun-21 20:00N 69°49' E 019°34'5 9.8
2017-Jun-21 19:30N 69°48' E 019°20'510.0
2017-Jun-21 19:00N 69°46' E 019°06'5 9.5
2017-Jun-21 18:30N 69°41' E 019°03'2 4.8
2017-Jun-21 18:00N 69°39' E 018°58'0 0.0
2017-Jun-21 17:30N 69°39' E 018°58'0 0.0
2017-Jun-21 17:00N 69°39' E 018°58'0 0.0
2017-Jun-21 16:30N 69°39' E 018°58'1 1.2
2017-Jun-21 15:59N 69°39' E 018°57'0 0.0
2017-Jun-21 15:29N 69°39' E 018°57'0 0.0
2017-Jun-21 14:59N 69°39' E 018°57'0 0.0
2017-Jun-21 14:29N 69°39' E 018°57'0 0.0
2017-Jun-21 11:38N 69°39' E 018°57'0 0.0
2017-Jun-21 10:59N 69°39' E 018°57'0 0.0
2017-Jun-20 20:44N 69°39' E 018°57'0 0.0
2017-Jun-20 08:44N 69°39' E 018°57'0 0.0
2017-Jun-19 12:49N 69°39' E 018°57'0 0.0
2017-Jun-19 12:28N 69°39' E 018°57'0 0.0
2017-Jun-19 11:58N 69°39' E 018°57'0 0.0
2017-Jun-19 11:28N 69°39' E 018°57'0 0.0
2017-Jun-19 10:58N 69°39' E 018°57'0 0.0
2017-Jun-19 10:28N 69°39' E 018°57'0 0.0
2017-Jun-19 09:55N 69°39' E 018°57'0 0.0
2017-Jun-19 09:28N 69°39' E 018°57'0 0.3
2017-Jun-19 09:00N 69°39' E 018°58'3 6.3
2017-Jun-19 08:30N 69°36' E 018°53'4 8.5
2017-Jun-19 08:00N 69°33' E 018°43'510.0
2017-Jun-19 07:30N 69°32' E 018°29'510.3
2017-Jun-19 07:00N 69°31' E 018°16'5 9.6
2017-Jun-19 06:30N 69°27' E 018°07'610.9
2017-Jun-19 06:00N 69°21' E 018°05'510.3
2017-Jun-19 05:30N 69°17' E 017°58'4 8.8
2017-Jun-19 05:00N 69°12' E 018°00'4 8.2
2017-Jun-19 04:30N 69°09' E 017°53'511.1
2017-Jun-19 04:00N 69°07' E 017°38'611.3
2017-Jun-19 03:30N 69°05' E 017°24'611.1
2017-Jun-19 03:00N 69°00' E 017°17'611.5
2017-Jun-19 02:29N 68°56' E 017°06'611.6
2017-Jun-19 02:00N 68°51' E 016°56'611.4
2017-Jun-19 01:30N 68°46' E 016°49'611.3
2017-Jun-19 01:00N 68°41' E 016°41'611.2
2017-Jun-19 00:30N 68°37' E 016°33'4 9.0
2017-Jun-19 00:00N 68°33' E 016°26'4 8.3
2017-Jun-18 23:30N 68°33' E 016°15'510.9
2017-Jun-18 23:00N 68°29' E 016°07'611.1
2017-Jun-18 22:30N 68°23' E 016°02'611.3
2017-Jun-18 21:59N 68°18' E 015°54'510.9
2017-Jun-18 21:30N 68°14' E 015°44'611.4
2017-Jun-18 21:00N 68°12' E 015°31'611.4
2017-Jun-18 20:30N 68°09' E 015°18'611.5
2017-Jun-18 20:00N 68°05' E 015°05'611.5
2017-Jun-18 19:30N 68°02' E 014°53'611.3
2017-Jun-18 19:00N 67°59' E 014°40'611.1
2017-Jun-18 18:30N 67°56' E 014°28'510.7
2017-Jun-18 18:00N 67°53' E 014°16'510.8
2017-Jun-18 17:29N 67°48' E 014°08'511.0
2017-Jun-18 17:00N 67°44' E 013°59'611.3
2017-Jun-18 16:30N 67°39' E 013°50'611.5
2017-Jun-18 16:00N 67°35' E 013°40'611.3
2017-Jun-18 15:30N 67°30' E 013°31'611.4
2017-Jun-18 15:00N 67°26' E 013°22'1111.3
2017-Jun-18 14:00N 67°17' E 013°04'4611.2
2017-Jun-18 09:56N 66°39' E 011°60'511.4
2017-Jun-18 09:30N 66°35' E 011°54'611.4
2017-Jun-18 09:00N 66°29' E 011°49'611.3
2017-Jun-18 08:30N 66°24' E 011°44'16411.2
2017-Jun-17 17:47N 64°00' E 008°33'311.8
2017-Jun-17 17:30N 63°58' E 008°28'611.9
2017-Jun-17 17:00N 63°54' E 008°18'611.9
2017-Jun-17 16:30N 63°50' E 008°09'611.9
2017-Jun-17 16:00N 63°45' E 007°60'611.8
2017-Jun-17 15:30N 63°41' E 007°51'611.8
2017-Jun-17 15:00N 63°37' E 007°42'612.0
2017-Jun-17 14:30N 63°32' E 007°33'1211.9
2017-Jun-17 13:30N 63°23' E 007°16'611.5
2017-Jun-17 13:00N 63°19' E 007°07'511.2
2017-Jun-17 12:30N 63°15' E 006°59'611.0
2017-Jun-17 12:00N 63°11' E 006°50'611.1
2017-Jun-17 11:30N 63°07' E 006°42'511.0
2017-Jun-17 11:00N 63°03' E 006°34'611.3
2017-Jun-17 10:30N 62°59' E 006°25'611.5
2017-Jun-17 10:00N 62°54' E 006°17'611.7
2017-Jun-17 09:29N 62°50' E 006°08'611.4
2017-Jun-17 09:00N 62°46' E 006°00'611.6
2017-Jun-17 08:30N 62°41' E 005°52'611.3
2017-Jun-17 08:00N 62°37' E 005°43'611.3
2017-Jun-17 07:30N 62°33' E 005°35'611.3
2017-Jun-17 07:00N 62°28' E 005°28'511.2
2017-Jun-17 06:30N 62°24' E 005°20'611.1
2017-Jun-17 06:00N 62°20' E 005°13'611.1
2017-Jun-17 05:29N 62°15' E 005°05'511.3
2017-Jun-17 05:00N 62°11' E 004°58'611.4
2017-Jun-17 04:30N 62°06' E 004°52'611.3
2017-Jun-17 03:59N 62°01' E 004°46'611.1
2017-Jun-17 03:29N 61°56' E 004°40'511.2
2017-Jun-17 03:00N 61°52' E 004°34'611.2
2017-Jun-17 02:30N 61°47' E 004°28'3411.3
2017-Jun-16 23:32N 61°13' E 004°17'011.8
2017-Jun-16 23:30N 61°13' E 004°17'612.2
2017-Jun-16 23:00N 61°07' E 004°17'612.1
2017-Jun-16 22:30N 61°01' E 004°17'611.9
2017-Jun-16 22:00N 60°55' E 004°18'611.9
2017-Jun-16 21:30N 60°49' E 004°21'611.7
2017-Jun-16 21:00N 60°43' E 004°23'611.5
2017-Jun-16 20:29N 60°38' E 004°25'611.6
2017-Jun-16 19:59N 60°32' E 004°27'511.1
2017-Jun-16 19:30N 60°26' E 004°29'611.4
2017-Jun-16 19:00N 60°21' E 004°31'611.2
2017-Jun-16 18:30N 60°15' E 004°32'611.7
2017-Jun-16 18:00N 60°09' E 004°33'611.5
2017-Jun-16 17:30N 60°04' E 004°34'611.3
2017-Jun-16 17:00N 59°58' E 004°35'611.0
2017-Jun-16 16:30N 59°53' E 004°36'510.6
2017-Jun-16 16:00N 59°47' E 004°38'510.5
2017-Jun-16 15:29N 59°42' E 004°39'510.4
2017-Jun-16 15:00N 59°37' E 004°40'2910.1
2017-Jun-16 12:08N 59°09' E 004°50'1 9.8
2017-Jun-16 12:00N 59°07' E 004°51'510.2
2017-Jun-16 11:30N 59°03' E 004°57'510.4
2017-Jun-16 11:00N 58°59' E 005°02'510.3
2017-Jun-16 10:30N 58°54' E 005°07'510.3
2017-Jun-16 10:00N 58°50' E 005°13'510.2
2017-Jun-16 09:30N 58°46' E 005°18'510.5
2017-Jun-16 09:00N 58°41' E 005°24'510.1
2017-Jun-16 08:30N 58°37' E 005°30'5 9.8
2017-Jun-16 07:59N 58°33' E 005°36'5 9.9
2017-Jun-16 07:30N 58°30' E 005°41'510.2
2017-Jun-16 07:00N 58°25' E 005°47'510.8
2017-Jun-16 06:30N 58°22' E 005°54'510.6
2017-Jun-16 06:00N 58°18' E 006°01'510.6
2017-Jun-16 05:30N 58°14' E 006°08'510.8
2017-Jun-16 04:59N 58°10' E 006°16'510.5
2017-Jun-16 04:30N 58°07' E 006°24'5 9.8
2017-Jun-16 04:00N 58°04' E 006°31'510.9
2017-Jun-16 03:30N 58°02' E 006°40'510.6
2017-Jun-16 03:00N 58°00' E 006°50'510.3
2017-Jun-16 02:30N 57°58' E 006°59'510.2
2017-Jun-16 02:00N 57°57' E 007°08'510.0
2017-Jun-16 01:30N 57°56' E 007°17'510.9
2017-Jun-16 01:00N 57°56' E 007°27'612.2
2017-Jun-16 00:30N 57°55' E 007°39'612.0
2017-Jun-16 00:00N 57°55' E 007°50'612.3
2017-Jun-15 23:29N 57°54' E 008°02'612.4
2017-Jun-15 23:00N 57°54' E 008°13'611.5
2017-Jun-15 22:30N 57°54' E 008°24'7110.9
2017-Jun-15 15:59N 57°49' E 010°37'510.8
2017-Jun-15 15:29N 57°48' E 010°47'510.3
2017-Jun-15 15:00N 57°45' E 010°54'1110.9
2017-Jun-15 14:00N 57°37' E 011°08'510.8
2017-Jun-15 13:30N 57°33' E 011°15'611.1
2017-Jun-15 13:00N 57°29' E 011°23'510.5
2017-Jun-15 12:30N 57°24' E 011°28'510.7
2017-Jun-15 12:00N 57°19' E 011°31'611.1
2017-Jun-15 11:30N 57°14' E 011°34'6710.3
2017-Jun-15 04:59N 56°12' E 012°20'510.1
2017-Jun-15 04:30N 56°10' E 012°27'510.4
2017-Jun-15 04:00N 56°06' E 012°35'5 9.9
2017-Jun-15 03:30N 56°02' E 012°40'510.0
2017-Jun-15 03:00N 55°58' E 012°43'510.0
2017-Jun-15 02:30N 55°53' E 012°44'510.7
2017-Jun-15 02:00N 55°47' E 012°43'510.5
2017-Jun-15 01:30N 55°42' E 012°41'510.2
2017-Jun-15 01:00N 55°37' E 012°42'510.0
2017-Jun-15 00:30N 55°32' E 012°43'510.8
2017-Jun-15 00:00N 55°27' E 012°42'711.0
2017-Jun-14 23:25N 55°20' E 012°41'3610.4
2017-Jun-14 19:56N 55°08' E 013°40'510.7
2017-Jun-14 19:30N 55°06' E 013°48'510.7
2017-Jun-14 19:00N 55°05' E 013°57'510.6
2017-Jun-14 18:30N 55°03' E 014°06'510.5
2017-Jun-14 18:00N 55°02' E 014°14'510.4
2017-Jun-14 17:30N 54°60' E 014°23'510.1
2017-Jun-14 17:00N 54°58' E 014°31'510.1
2017-Jun-14 16:30N 54°57' E 014°40'510.0
2017-Jun-14 16:00N 54°56' E 014°48'5 9.8
2017-Jun-14 15:30N 54°54' E 014°56'5 9.6
2017-Jun-14 15:00N 54°56' E 015°04'65 9.4
2017-Jun-14 08:10N 54°56' E 016°57'1 9.1
2017-Jun-14 08:00N 54°56' E 016°59'5 8.9
2017-Jun-14 07:26N 54°56' E 017°08'7 8.6
2017-Jun-14 06:36N 54°56' E 017°20'1 8.7
2017-Jun-14 06:28N 54°56' E 017°23'4 8.8
2017-Jun-14 06:00N 54°55' E 017°30'4 8.8
2017-Jun-14 05:30N 54°54' E 017°37'4 8.7
2017-Jun-14 05:00N 54°54' E 017°44'4 8.7
2017-Jun-14 04:30N 54°53' E 017°52'4 8.7
2017-Jun-14 04:00N 54°53' E 017°59'4 8.9
2017-Jun-14 03:30N 54°52' E 018°07'5 9.0
2017-Jun-14 03:00N 54°51' E 018°15'4 9.0
2017-Jun-14 02:30N 54°50' E 018°22'5 9.0
2017-Jun-14 02:00N 54°48' E 018°29'4 9.0
2017-Jun-14 01:30N 54°46' E 018°36'4 9.0
2017-Jun-14 01:00N 54°43' E 018°42'4 8.7
2017-Jun-14 00:30N 54°41' E 018°48'4 8.7
2017-Jun-14 00:00N 54°37' E 018°52'4 7.4
2017-Jun-13 23:30N 54°33' E 018°51'510.4
2017-Jun-13 23:00N 54°29' E 018°45'510.5
2017-Jun-13 22:31N 54°25' E 018°39'2 3.6
2017-Jun-13 21:58N 54°24' E 018°40'0 0.0
2017-Jun-13 21:28N 54°24' E 018°40'0 0.0
2017-Jun-13 20:58N 54°24' E 018°40'0 0.0
2017-Jun-13 20:28N 54°24' E 018°40'0 0.0
2017-Jun-13 19:58N 54°24' E 018°40'0 0.0
2017-Jun-13 19:28N 54°24' E 018°40'0 0.0
2017-Jun-13 18:58N 54°24' E 018°40'0 0.0
2017-Jun-13 18:25N 54°24' E 018°40'0 0.0
2017-Jun-13 17:58N 54°24' E 018°40'0 0.0
2017-Jun-13 17:28N 54°24' E 018°40'0 0.0
2017-Jun-13 16:58N 54°24' E 018°40'0 0.0
2017-Jun-13 16:28N 54°24' E 018°40'0 0.0
2017-Jun-13 15:58N 54°24' E 018°40'0 0.0
2017-Jun-13 15:28N 54°24' E 018°40'0 0.0
2017-Jun-13 14:58N 54°24' E 018°40'0 0.0
2017-Jun-13 14:28N 54°24' E 018°40'0 0.0
2017-Jun-13 13:28N 54°24' E 018°40'0 0.0
2017-Jun-13 12:59N 54°24' E 018°40'0 0.0
2017-Jun-13 12:29N 54°24' E 018°40'0 0.0
2017-Jun-13 11:59N 54°24' E 018°40'0 0.0
2017-Jun-13 11:29N 54°24' E 018°40'0 0.0
2017-Jun-13 10:59N 54°24' E 018°40'0 0.0
2017-Jun-13 10:29N 54°24' E 018°40'0 0.0
2017-Jun-13 09:59N 54°24' E 018°40'0 0.0
2017-Jun-13 09:29N 54°24' E 018°40'0 0.0
2017-Jun-13 08:56N 54°24' E 018°40'0 0.0
2017-Jun-13 08:29N 54°24' E 018°40'0 0.0
2017-Jun-13 07:56N 54°24' E 018°40'0 0.0
2017-Jun-13 07:29N 54°24' E 018°40'0 0.0
2017-Jun-13 06:59N 54°24' E 018°40'0 0.0
2017-Jun-13 06:26N 54°24' E 018°40'0 0.0
2017-Jun-13 05:56N 54°24' E 018°40'0 0.0
2017-Jun-13 05:29N 54°24' E 018°40'0 0.0
2017-Jun-13 04:59N 54°24' E 018°40'0 0.0
2017-Jun-13 04:29N 54°24' E 018°40'0 0.0
2017-Jun-13 03:59N 54°24' E 018°40'0 0.0
2017-Jun-13 03:29N 54°24' E 018°40'0 0.0
2017-Jun-13 02:59N 54°24' E 018°40'0 0.0
2017-Jun-13 02:29N 54°24' E 018°40'0 0.0
2017-Jun-13 01:59N 54°24' E 018°40'0 0.0
2017-Jun-13 01:26N 54°24' E 018°40'0 0.0
2017-Jun-13 00:59N 54°24' E 018°40'0 0.0
2017-Jun-13 00:29N 54°24' E 018°40'0 0.0
2017-Jun-12 23:59N 54°24' E 018°40'0 0.0
2017-Jun-12 23:26N 54°24' E 018°40'0 0.0
2017-Jun-12 22:59N 54°24' E 018°40'0 0.0
2017-Jun-12 22:29N 54°24' E 018°40'0 0.0
2017-Jun-12 21:59N 54°24' E 018°40'0 0.0
2017-Jun-12 21:29N 54°24' E 018°40'0 0.0
2017-Jun-12 20:59N 54°24' E 018°40'0 0.0
2017-Jun-12 20:29N 54°24' E 018°40'0 0.0
2017-Jun-12 19:59N 54°24' E 018°40'0 0.0
2017-Jun-12 19:29N 54°24' E 018°40'0 0.0
2017-Jun-12 18:59N 54°24' E 018°40'0 0.0
2017-Jun-12 18:29N 54°24' E 018°40'0 0.0
2017-Jun-12 17:59N 54°24' E 018°40'0 0.0
2017-Jun-12 17:29N 54°24' E 018°40'0 0.0
2017-Jun-12 16:59N 54°24' E 018°40'0 0.0
2017-Jun-12 16:29N 54°24' E 018°40'0 0.0
2017-Jun-12 15:59N 54°24' E 018°40'0 0.0
2017-Jun-12 15:29N 54°24' E 018°40'0 0.0
2017-Jun-12 14:59N 54°24' E 018°40'0 0.0
2017-Jun-12 14:29N 54°24' E 018°40'0 0.0
2017-Jun-12 13:29N 54°24' E 018°40'0 0.0
2017-Jun-12 12:59N 54°24' E 018°40'0 0.0
2017-Jun-12 12:29N 54°24' E 018°40'0 0.0
2017-Jun-12 11:56N 54°24' E 018°40'0 0.0
2017-Jun-12 11:29N 54°24' E 018°40'0 0.0
2017-Jun-12 10:56N 54°24' E 018°40'0 0.0
2017-Jun-12 10:29N 54°24' E 018°40'0 0.0
2017-Jun-12 09:59N 54°24' E 018°40'0 0.0
2017-Jun-12 09:29N 54°24' E 018°40'0 0.0
2017-Jun-12 08:56N 54°24' E 018°40'0 0.0
2017-Jun-12 08:29N 54°24' E 018°40'0 0.0
2017-Jun-12 07:59N 54°24' E 018°40'0 0.0
2017-Jun-12 07:29N 54°24' E 018°40'0 0.0
2017-Jun-12 06:59N 54°24' E 018°40'0 0.0
2017-Jun-12 06:29N 54°24' E 018°40'0 0.0
2017-Jun-12 05:59N 54°24' E 018°40'0 0.0
2017-Jun-12 05:29N 54°24' E 018°40'0 0.0
2017-Jun-12 04:59N 54°24' E 018°40'0 0.0
2017-Jun-12 04:29N 54°24' E 018°40'  
Track history (hours):
 
Tides and Currents Weather Stations Pressure Air Temp Water Temp Dewpoint Dewpoint Depression Visibility Wind Speed Wind Dir Waves Ship Positions

Oceanographic research ship Oceania (Poland)

Detailed information on ship capabilities available from University of Delaware's Ocean Information Center and ARCUS's ALIAS (Arctic Logistics Information and Support) project.

Last reported at 2017-Jun-22 04:24 UTC. Time now 2017-Jun-24 05:16 UTC.
Position N 70°41' E 019°55'.

Length 49 m; beam 9 m.

Type: Sailing vessel. MMSI: 261000142.

Date/timePositionNaut miles runAvg speedWind from/ knotsBaromVisibWave heightAir tempDewpointWater temp
2017-Jun-22 04:24N 70°41' E 019°55'1 3.6
2017-Jun-22 03:59N 70°40' E 019°56'1 2.2
2017-Jun-22 03:30N 70°39' E 019°57'4 7.4
2017-Jun-22 03:00N 70°35' E 019°57'4 7.4
2017-Jun-22 02:30N 70°32' E 019°58'2 3.3
2017-Jun-22 02:00N 70°30' E 019°59'0 0.8
2017-Jun-22 01:30N 70°30' E 020°00'3 6.7
2017-Jun-22 01:00N 70°26' E 020°01'3 6.9
2017-Jun-22 00:30N 70°23' E 020°02'4 7.7
2017-Jun-22 00:00N 70°19' E 020°04'4 8.5
2017-Jun-21 23:30N 70°15' E 020°06'5 9.0
2017-Jun-21 23:00N 70°10' E 020°08'5 8.9
2017-Jun-21 22:29N 70°06' E 020°11'4 8.4
2017-Jun-21 22:00N 70°02' E 020°05'4 8.9
2017-Jun-21 21:30N 69°59' E 019°58'5 9.0
2017-Jun-21 21:00N 69°55' E 019°52'4 8.9
2017-Jun-21 20:30N 69°51' E 019°45'4 8.9
2017-Jun-21 20:00N 69°49' E 019°34'5 9.8
2017-Jun-21 19:30N 69°48' E 019°20'510.0
2017-Jun-21 19:00N 69°46' E 019°06'5 9.5
2017-Jun-21 18:30N 69°41' E 019°03'2 4.8
2017-Jun-21 18:00N 69°39' E 018°58'0 0.0
2017-Jun-21 17:30N 69°39' E 018°58'0 0.0
2017-Jun-21 17:00N 69°39' E 018°58'0 0.0
2017-Jun-21 16:30N 69°39' E 018°58'1 1.2
2017-Jun-21 15:59N 69°39' E 018°57'0 0.0
2017-Jun-21 15:29N 69°39' E 018°57'0 0.0
2017-Jun-21 14:59N 69°39' E 018°57'0 0.0
2017-Jun-21 14:29N 69°39' E 018°57'0 0.0
2017-Jun-21 11:38N 69°39' E 018°57'0 0.0
2017-Jun-21 10:59N 69°39' E 018°57'0 0.0
2017-Jun-20 20:44N 69°39' E 018°57'0 0.0
2017-Jun-20 08:44N 69°39' E 018°57'0 0.0
2017-Jun-19 12:49N 69°39' E 018°57'0 0.0
2017-Jun-19 12:28N 69°39' E 018°57'0 0.0
2017-Jun-19 11:58N 69°39' E 018°57'0 0.0
2017-Jun-19 11:28N 69°39' E 018°57'0 0.0
2017-Jun-19 10:58N 69°39' E 018°57'0 0.0
2017-Jun-19 10:28N 69°39' E 018°57'0 0.0
2017-Jun-19 09:55N 69°39' E 018°57'0 0.0
2017-Jun-19 09:28N 69°39' E 018°57'0 0.3
2017-Jun-19 09:00N 69°39' E 018°58'3 6.3
2017-Jun-19 08:30N 69°36' E 018°53'4 8.5
2017-Jun-19 08:00N 69°33' E 018°43'510.0
2017-Jun-19 07:30N 69°32' E 018°29'510.3
2017-Jun-19 07:00N 69°31' E 018°16'5 9.6
2017-Jun-19 06:30N 69°27' E 018°07'610.9
2017-Jun-19 06:00N 69°21' E 018°05'510.3
2017-Jun-19 05:30N 69°17' E 017°58'4 8.8
2017-Jun-19 05:00N 69°12' E 018°00'4 8.2
2017-Jun-19 04:30N 69°09' E 017°53'511.1
2017-Jun-19 04:00N 69°07' E 017°38'611.3
2017-Jun-19 03:30N 69°05' E 017°24'611.1
2017-Jun-19 03:00N 69°00' E 017°17'611.5
2017-Jun-19 02:29N 68°56' E 017°06'611.6
2017-Jun-19 02:00N 68°51' E 016°56'611.4
2017-Jun-19 01:30N 68°46' E 016°49'611.3
2017-Jun-19 01:00N 68°41' E 016°41'611.2
2017-Jun-19 00:30N 68°37' E 016°33'4 9.0
2017-Jun-19 00:00N 68°33' E 016°26'4 8.3
2017-Jun-18 23:30N 68°33' E 016°15'510.9
2017-Jun-18 23:00N 68°29' E 016°07'611.1
2017-Jun-18 22:30N 68°23' E 016°02'611.3
2017-Jun-18 21:59N 68°18' E 015°54'510.9
2017-Jun-18 21:30N 68°14' E 015°44'611.4
2017-Jun-18 21:00N 68°12' E 015°31'611.4
2017-Jun-18 20:30N 68°09' E 015°18'611.5
2017-Jun-18 20:00N 68°05' E 015°05'611.5
2017-Jun-18 19:30N 68°02' E 014°53'611.3
2017-Jun-18 19:00N 67°59' E 014°40'611.1
2017-Jun-18 18:30N 67°56' E 014°28'510.7
2017-Jun-18 18:00N 67°53' E 014°16'510.8
2017-Jun-18 17:29N 67°48' E 014°08'511.0
2017-Jun-18 17:00N 67°44' E 013°59'611.3
2017-Jun-18 16:30N 67°39' E 013°50'611.5
2017-Jun-18 16:00N 67°35' E 013°40'611.3
2017-Jun-18 15:30N 67°30' E 013°31'611.4
2017-Jun-18 15:00N 67°26' E 013°22'1111.3
2017-Jun-18 14:00N 67°17' E 013°04'4611.2
2017-Jun-18 09:56N 66°39' E 011°60'511.4
2017-Jun-18 09:30N 66°35' E 011°54'611.4
2017-Jun-18 09:00N 66°29' E 011°49'611.3
2017-Jun-18 08:30N 66°24' E 011°44'16411.2
2017-Jun-17 17:47N 64°00' E 008°33'311.8
2017-Jun-17 17:30N 63°58' E 008°28'611.9
2017-Jun-17 17:00N 63°54' E 008°18'611.9
2017-Jun-17 16:30N 63°50' E 008°09'611.9
2017-Jun-17 16:00N 63°45' E 007°60'611.8
2017-Jun-17 15:30N 63°41' E 007°51'611.8
2017-Jun-17 15:00N 63°37' E 007°42'612.0
2017-Jun-17 14:30N 63°32' E 007°33'1211.9
2017-Jun-17 13:30N 63°23' E 007°16'611.5
2017-Jun-17 13:00N 63°19' E 007°07'511.2
2017-Jun-17 12:30N 63°15' E 006°59'611.0
2017-Jun-17 12:00N 63°11' E 006°50'611.1
2017-Jun-17 11:30N 63°07' E 006°42'511.0
2017-Jun-17 11:00N 63°03' E 006°34'611.3
2017-Jun-17 10:30N 62°59' E 006°25'611.5
2017-Jun-17 10:00N 62°54' E 006°17'611.7
2017-Jun-17 09:29N 62°50' E 006°08'611.4
2017-Jun-17 09:00N 62°46' E 006°00'611.6
2017-Jun-17 08:30N 62°41' E 005°52'611.3
2017-Jun-17 08:00N 62°37' E 005°43'611.3
2017-Jun-17 07:30N 62°33' E 005°35'611.3
2017-Jun-17 07:00N 62°28' E 005°28'511.2
2017-Jun-17 06:30N 62°24' E 005°20'611.1
2017-Jun-17 06:00N 62°20' E 005°13'611.1
2017-Jun-17 05:29N 62°15' E 005°05'511.3
2017-Jun-17 05:00N 62°11' E 004°58'611.4
2017-Jun-17 04:30N 62°06' E 004°52'611.3
2017-Jun-17 03:59N 62°01' E 004°46'611.1
2017-Jun-17 03:29N 61°56' E 004°40'511.2
2017-Jun-17 03:00N 61°52' E 004°34'611.2
2017-Jun-17 02:30N 61°47' E 004°28'3411.3
2017-Jun-16 23:32N 61°13' E 004°17'011.8
2017-Jun-16 23:30N 61°13' E 004°17'612.2
2017-Jun-16 23:00N 61°07' E 004°17'612.1
2017-Jun-16 22:30N 61°01' E 004°17'611.9
2017-Jun-16 22:00N 60°55' E 004°18'611.9
2017-Jun-16 21:30N 60°49' E 004°21'611.7
2017-Jun-16 21:00N 60°43' E 004°23'611.5
2017-Jun-16 20:29N 60°38' E 004°25'611.6
2017-Jun-16 19:59N 60°32' E 004°27'511.1
2017-Jun-16 19:30N 60°26' E 004°29'611.4
2017-Jun-16 19:00N 60°21' E 004°31'611.2
2017-Jun-16 18:30N 60°15' E 004°32'611.7
2017-Jun-16 18:00N 60°09' E 004°33'611.5
2017-Jun-16 17:30N 60°04' E 004°34'611.3
2017-Jun-16 17:00N 59°58' E 004°35'611.0
2017-Jun-16 16:30N 59°53' E 004°36'510.6
2017-Jun-16 16:00N 59°47' E 004°38'510.5
2017-Jun-16 15:29N 59°42' E 004°39'510.4
2017-Jun-16 15:00N 59°37' E 004°40'2910.1
2017-Jun-16 12:08N 59°09' E 004°50'1 9.8
2017-Jun-16 12:00N 59°07' E 004°51'510.2
2017-Jun-16 11:30N 59°03' E 004°57'510.4
2017-Jun-16 11:00N 58°59' E 005°02'510.3
2017-Jun-16 10:30N 58°54' E 005°07'510.3
2017-Jun-16 10:00N 58°50' E 005°13'510.2
2017-Jun-16 09:30N 58°46' E 005°18'510.5
2017-Jun-16 09:00N 58°41' E 005°24'510.1
2017-Jun-16 08:30N 58°37' E 005°30'5 9.8
2017-Jun-16 07:59N 58°33' E 005°36'5 9.9
2017-Jun-16 07:30N 58°30' E 005°41'510.2
2017-Jun-16 07:00N 58°25' E 005°47'510.8
2017-Jun-16 06:30N 58°22' E 005°54'510.6
2017-Jun-16 06:00N 58°18' E 006°01'510.6
2017-Jun-16 05:30N 58°14' E 006°08'510.8
2017-Jun-16 04:59N 58°10' E 006°16'510.5
2017-Jun-16 04:30N 58°07' E 006°24'5 9.8
2017-Jun-16 04:00N 58°04' E 006°31'510.9
2017-Jun-16 03:30N 58°02' E 006°40'510.6
2017-Jun-16 03:00N 58°00' E 006°50'510.3
2017-Jun-16 02:30N 57°58' E 006°59'510.2
2017-Jun-16 02:00N 57°57' E 007°08'510.0
2017-Jun-16 01:30N 57°56' E 007°17'510.9
2017-Jun-16 01:00N 57°56' E 007°27'612.2
2017-Jun-16 00:30N 57°55' E 007°39'612.0
2017-Jun-16 00:00N 57°55' E 007°50'612.3
2017-Jun-15 23:29N 57°54' E 008°02'612.4
2017-Jun-15 23:00N 57°54' E 008°13'611.5
2017-Jun-15 22:30N 57°54' E 008°24'7110.9
2017-Jun-15 15:59N 57°49' E 010°37'510.8
2017-Jun-15 15:29N 57°48' E 010°47'510.3
2017-Jun-15 15:00N 57°45' E 010°54'1110.9
2017-Jun-15 14:00N 57°37' E 011°08'510.8
2017-Jun-15 13:30N 57°33' E 011°15'611.1
2017-Jun-15 13:00N 57°29' E 011°23'510.5
2017-Jun-15 12:30N 57°24' E 011°28'510.7
2017-Jun-15 12:00N 57°19' E 011°31'611.1
2017-Jun-15 11:30N 57°14' E 011°34'6710.3
2017-Jun-15 04:59N 56°12' E 012°20'510.1
2017-Jun-15 04:30N 56°10' E 012°27'510.4
2017-Jun-15 04:00N 56°06' E 012°35'5 9.9
2017-Jun-15 03:30N 56°02' E 012°40'510.0
2017-Jun-15 03:00N 55°58' E 012°43'510.0
2017-Jun-15 02:30N 55°53' E 012°44'510.7
2017-Jun-15 02:00N 55°47' E 012°43'510.5
2017-Jun-15 01:30N 55°42' E 012°41'510.2
2017-Jun-15 01:00N 55°37' E 012°42'510.0
2017-Jun-15 00:30N 55°32' E 012°43'510.8
2017-Jun-15 00:00N 55°27' E 012°42'711.0
2017-Jun-14 23:25N 55°20' E 012°41'3610.4
2017-Jun-14 19:56N 55°08' E 013°40'510.7
2017-Jun-14 19:30N 55°06' E 013°48'510.7
2017-Jun-14 19:00N 55°05' E 013°57'510.6
2017-Jun-14 18:30N 55°03' E 014°06'510.5
2017-Jun-14 18:00N 55°02' E 014°14'510.4
2017-Jun-14 17:30N 54°60' E 014°23'510.1
2017-Jun-14 17:00N 54°58' E 014°31'510.1
2017-Jun-14 16:30N 54°57' E 014°40'510.0
2017-Jun-14 16:00N 54°56' E 014°48'5 9.8
2017-Jun-14 15:30N 54°54' E 014°56'5 9.6
2017-Jun-14 15:00N 54°56' E 015°04'65 9.4
2017-Jun-14 08:10N 54°56' E 016°57'1 9.1
2017-Jun-14 08:00N 54°56' E 016°59'5 8.9
2017-Jun-14 07:26N 54°56' E 017°08'7 8.6
2017-Jun-14 06:36N 54°56' E 017°20'1 8.7
2017-Jun-14 06:28N 54°56' E 017°23'4 8.8
2017-Jun-14 06:00N 54°55' E 017°30'4 8.8
2017-Jun-14 05:30N 54°54' E 017°37'4 8.7
2017-Jun-14 05:00N 54°54' E 017°44'4 8.7
2017-Jun-14 04:30N 54°53' E 017°52'4 8.7
2017-Jun-14 04:00N 54°53' E 017°59'4 8.9
2017-Jun-14 03:30N 54°52' E 018°07'5 9.0
2017-Jun-14 03:00N 54°51' E 018°15'4 9.0
2017-Jun-14 02:30N 54°50' E 018°22'5 9.0
2017-Jun-14 02:00N 54°48' E 018°29'4 9.0
2017-Jun-14 01:30N 54°46' E 018°36'4 9.0
2017-Jun-14 01:00N 54°43' E 018°42'4 8.7
2017-Jun-14 00:30N 54°41' E 018°48'4 8.7
2017-Jun-14 00:00N 54°37' E 018°52'4 7.4
2017-Jun-13 23:30N 54°33' E 018°51'510.4
2017-Jun-13 23:00N 54°29' E 018°45'510.5
2017-Jun-13 22:31N 54°25' E 018°39'2 3.6
2017-Jun-13 21:58N 54°24' E 018°40'0 0.0
2017-Jun-13 21:28N 54°24' E 018°40'0 0.0
2017-Jun-13 20:58N 54°24' E 018°40'0 0.0
2017-Jun-13 20:28N 54°24' E 018°40'0 0.0
2017-Jun-13 19:58N 54°24' E 018°40'0 0.0
2017-Jun-13 19:28N 54°24' E 018°40'0 0.0
2017-Jun-13 18:58N 54°24' E 018°40'0 0.0
2017-Jun-13 18:25N 54°24' E 018°40'0 0.0
2017-Jun-13 17:58N 54°24' E 018°40'0 0.0
2017-Jun-13 17:28N 54°24' E 018°40'0 0.0
2017-Jun-13 16:58N 54°24' E 018°40'0 0.0
2017-Jun-13 16:28N 54°24' E 018°40'0 0.0
2017-Jun-13 15:58N 54°24' E 018°40'0 0.0
2017-Jun-13 15:28N 54°24' E 018°40'0 0.0
2017-Jun-13 14:58N 54°24' E 018°40'0 0.0
2017-Jun-13 14:28N 54°24' E 018°40'0 0.0
2017-Jun-13 13:28N 54°24' E 018°40'0 0.0
2017-Jun-13 12:59N 54°24' E 018°40'0 0.0
2017-Jun-13 12:29N 54°24' E 018°40'0 0.0
2017-Jun-13 11:59N 54°24' E 018°40'0 0.0
2017-Jun-13 11:29N 54°24' E 018°40'0 0.0
2017-Jun-13 10:59N 54°24' E 018°40'0 0.0
2017-Jun-13 10:29N 54°24' E 018°40'0 0.0
2017-Jun-13 09:59N 54°24' E 018°40'0 0.0
2017-Jun-13 09:29N 54°24' E 018°40'0 0.0
2017-Jun-13 08:56N 54°24' E 018°40'0 0.0
2017-Jun-13 08:29N 54°24' E 018°40'0 0.0
2017-Jun-13 07:56N 54°24' E 018°40'0 0.0
2017-Jun-13 07:29N 54°24' E 018°40'0 0.0
2017-Jun-13 06:59N 54°24' E 018°40'0 0.0
2017-Jun-13 06:26N 54°24' E 018°40'0 0.0
2017-Jun-13 05:56N 54°24' E 018°40'0 0.0
2017-Jun-13 05:29N 54°24' E 018°40'0 0.0
2017-Jun-13 04:59N 54°24' E 018°40'0 0.0
2017-Jun-13 04:29N 54°24' E 018°40'0 0.0
2017-Jun-13 03:59N 54°24' E 018°40'0 0.0
2017-Jun-13 03:29N 54°24' E 018°40'0 0.0
2017-Jun-13 02:59N 54°24' E 018°40'0 0.0
2017-Jun-13 02:29N 54°24' E 018°40'0 0.0
2017-Jun-13 01:59N 54°24' E 018°40'0 0.0
2017-Jun-13 01:26N 54°24' E 018°40'0 0.0
2017-Jun-13 00:59N 54°24' E 018°40'0 0.0
2017-Jun-13 00:29N 54°24' E 018°40'0 0.0
2017-Jun-12 23:59N 54°24' E 018°40'0 0.0
2017-Jun-12 23:26N 54°24' E 018°40'0 0.0
2017-Jun-12 22:59N 54°24' E 018°40'0 0.0
2017-Jun-12 22:29N 54°24' E 018°40'0 0.0
2017-Jun-12 21:59N 54°24' E 018°40'0 0.0
2017-Jun-12 21:29N 54°24' E 018°40'0 0.0
2017-Jun-12 20:59N 54°24' E 018°40'0 0.0
2017-Jun-12 20:29N 54°24' E 018°40'0 0.0
2017-Jun-12 19:59N 54°24' E 018°40'0 0.0
2017-Jun-12 19:29N 54°24' E 018°40'0 0.0
2017-Jun-12 18:59N 54°24' E 018°40'0 0.0
2017-Jun-12 18:29N 54°24' E 018°40'0 0.0
2017-Jun-12 17:59N 54°24' E 018°40'0 0.0
2017-Jun-12 17:29N 54°24' E 018°40'0 0.0
2017-Jun-12 16:59N 54°24' E 018°40'0 0.0
2017-Jun-12 16:29N 54°24' E 018°40'0 0.0
2017-Jun-12 15:59N 54°24' E 018°40'0 0.0
2017-Jun-12 15:29N 54°24' E 018°40'0 0.0
2017-Jun-12 14:59N 54°24' E 018°40'0 0.0
2017-Jun-12 14:29N 54°24' E 018°40'0 0.0
2017-Jun-12 13:29N 54°24' E 018°40'0 0.0
2017-Jun-12 12:59N 54°24' E 018°40'0 0.0
2017-Jun-12 12:29N 54°24' E 018°40'0 0.0
2017-Jun-12 11:56N 54°24' E 018°40'0 0.0
2017-Jun-12 11:29N 54°24' E 018°40'0 0.0
2017-Jun-12 10:56N 54°24' E 018°40'0 0.0
2017-Jun-12 10:29N 54°24' E 018°40'0 0.0
2017-Jun-12 09:59N 54°24' E 018°40'0 0.0
2017-Jun-12 09:29N 54°24' E 018°40'0 0.0
2017-Jun-12 08:56N 54°24' E 018°40'0 0.0
2017-Jun-12 08:29N 54°24' E 018°40'0 0.0
2017-Jun-12 07:59N 54°24' E 018°40'0 0.0
2017-Jun-12 07:29N 54°24' E 018°40'0 0.0
2017-Jun-12 06:59N 54°24' E 018°40'0 0.0
2017-Jun-12 06:29N 54°24' E 018°40'0 0.0
2017-Jun-12 05:59N 54°24' E 018°40'0 0.0
2017-Jun-12 05:29N 54°24' E 018°40'0 0.0
2017-Jun-12 04:59N 54°24' E 018°40'0 0.0
2017-Jun-12 04:29N 54°24' E 018°40'  

Dump ship's entire track history